Farmville Regional Airport


Codes: KFVX/
Name: Farmville Regional Airport
City: Farmville
Country: United States
Elevation: 416 ft.

Photos at Farmville Regional Airport


   Photos courtesy of SpottingLog. You can add your own sightings and photos by signing up for a free trial today.



N712LU, 04-Oct-2021
© Charles Michael Stinson


Weather at Farmville Regional Airport


Time (UTC)DescriptionTempratureWindCloud coverageVisibilityPressureHumidity
16-Jun-2024 12:00Few Clouds17°C0 mph, 23%10000m1022hPa85%
16-Jun-2024 15:00Broken Clouds23°C4 mph, SE52%10000m1022hPa61%
16-Jun-2024 18:00Overcast Clouds29°C4 mph, SE88%10000m1021hPa40%
16-Jun-2024 21:00Broken Clouds29°C4 mph, SW84%10000m1020hPa43%
17-Jun-2024 00:00Broken Clouds25°C4 mph, SW73%10000m1020hPa65%
17-Jun-2024 03:00Few Clouds21°C7 mph, SE24%10000m1021hPa69%
17-Jun-2024 06:00Scattered Clouds19°C4 mph, S35%10000m1022hPa70%
17-Jun-2024 09:00Broken Clouds18°C4 mph, S61%10000m1022hPa80%
17-Jun-2024 12:00Scattered Clouds21°C7 mph, S49%10000m1023hPa69%
17-Jun-2024 15:00Scattered Clouds28°C7 mph, S35%10000m1022hPa52%
17-Jun-2024 18:00Few Clouds32°C7 mph, S22%10000m1021hPa43%
17-Jun-2024 21:00Scattered Clouds33°C7 mph, S50%10000m1019hPa40%
18-Jun-2024 00:00Broken Clouds27°C7 mph, S72%10000m1020hPa64%
18-Jun-2024 03:00Overcast Clouds23°C4 mph, S85%10000m1022hPa72%
18-Jun-2024 06:00Scattered Clouds20°C4 mph, S50%10000m1023hPa81%
18-Jun-2024 09:00Clear Sky18°C4 mph, S7%10000m1023hPa89%
18-Jun-2024 12:00Clear Sky22°C7 mph, SW6%10000m1024hPa77%
18-Jun-2024 15:00Clear Sky29°C4 mph, S4%10000m1024hPa52%
18-Jun-2024 18:00Clear Sky33°C7 mph, SE6%10000m1023hPa38%
18-Jun-2024 21:00Clear Sky33°C7 mph, SE3%10000m1022hPa33%
19-Jun-2024 00:00Clear Sky26°C4 mph, SE1%10000m1023hPa60%
19-Jun-2024 03:00Clear Sky23°C9 mph, SE3%10000m1025hPa58%
19-Jun-2024 06:00Scattered Clouds18°C2 mph, S41%10000m1025hPa87%
19-Jun-2024 09:00Scattered Clouds17°C2 mph, SW34%10000m1026hPa95%
19-Jun-2024 12:00Scattered Clouds21°C2 mph, SE40%10000m1028hPa75%
19-Jun-2024 15:00Scattered Clouds28°C4 mph, E49%10000m1028hPa46%
19-Jun-2024 18:00Scattered Clouds31°C7 mph, E25%10000m1026hPa34%
19-Jun-2024 21:00Clear Sky32°C7 mph, E0%10000m1024hPa37%
20-Jun-2024 00:00Clear Sky26°C9 mph, SE6%10000m1025hPa58%
20-Jun-2024 03:00Clear Sky21°C4 mph, SE0%10000m1027hPa73%
20-Jun-2024 06:00Clear Sky17°C2 mph, NE0%10000m1027hPa89%
20-Jun-2024 09:00Clear Sky16°C2 mph, SE0%10000m1027hPa96%
20-Jun-2024 12:00Clear Sky21°C0 mph, E0%10000m1028hPa79%
20-Jun-2024 15:00Clear Sky27°C4 mph, E0%10000m1028hPa50%
20-Jun-2024 18:00Clear Sky31°C4 mph, SE0%10000m1026hPa32%
20-Jun-2024 21:00Clear Sky32°C4 mph, SE0%10000m1024hPa33%
21-Jun-2024 00:00Clear Sky26°C2 mph, SE0%10000m1024hPa60%
21-Jun-2024 03:00Clear Sky22°C4 mph, SE0%10000m1026hPa70%
21-Jun-2024 06:00Clear Sky20°C7 mph, S0%10000m1025hPa82%
21-Jun-2024 09:00Clear Sky18°C4 mph, SW0%10000m1025hPa96%